createdAt,value
2024-04-14T00:02:07.272Z,5.97
2024-04-14T00:04:37.049Z,5.85
2024-04-14T00:07:04.145Z,4.55
2024-04-14T00:09:31.047Z,6.60
2024-04-14T00:11:57.857Z,6.13
2024-04-14T00:14:24.725Z,6.38
2024-04-14T00:16:51.859Z,8.95
2024-04-14T00:19:18.684Z,7.70
2024-04-14T00:21:48.579Z,7.13
2024-04-14T00:24:15.360Z,5.57
2024-04-14T00:26:42.134Z,5.50
2024-04-14T00:29:09.037Z,6.07
2024-04-14T00:31:35.816Z,7.78
2024-04-14T00:34:02.772Z,12.57
2024-04-14T00:36:29.661Z,6.75
2024-04-14T00:38:59.125Z,5.45
2024-04-14T00:41:25.871Z,7.05
2024-04-14T00:43:52.675Z,7.70
2024-04-14T00:46:20.063Z,7.05
2024-04-14T00:48:47.091Z,4.95
2024-04-14T00:51:14.314Z,10.32
2024-04-14T00:53:41.131Z,5.82
2024-04-14T00:56:11.513Z,4.10
2024-04-14T00:58:38.528Z,4.70
2024-04-14T01:01:06.759Z,5.70
2024-04-14T01:03:34.708Z,5.90
2024-04-14T01:06:01.740Z,6.53
2024-04-14T01:08:29.644Z,5.07
2024-04-14T01:10:56.487Z,6.43
2024-04-14T01:13:25.961Z,4.65
2024-04-14T01:15:52.811Z,6.78
2024-04-14T01:18:19.647Z,6.22
2024-04-14T01:20:46.402Z,6.53
2024-04-14T01:23:13.231Z,4.07
2024-04-14T01:25:42.671Z,4.57
2024-04-14T01:28:09.767Z,3.75
2024-04-14T01:30:36.623Z,5.30
2024-04-14T01:33:03.610Z,5.43
2024-04-14T01:35:30.472Z,3.00
2024-04-14T01:38:08.604Z,7.45
2024-04-14T01:40:39.250Z,4.43
2024-04-14T01:43:08.942Z,4.70
2024-04-14T01:45:36.514Z,4.40
2024-04-14T01:48:14.072Z,3.75
2024-04-14T01:50:47.164Z,4.55
2024-04-14T01:53:14.047Z,7.55
2024-04-14T01:55:43.820Z,9.18
2024-04-14T01:58:13.266Z,3.35
2024-04-14T02:00:40.149Z,5.75
2024-04-14T02:03:07.152Z,5.45
2024-04-14T02:05:34.048Z,5.75
2024-04-14T02:08:00.805Z,4.38
2024-04-14T02:10:27.546Z,3.47
2024-04-14T02:12:54.383Z,7.82
2024-04-14T02:15:26.609Z,5.43
2024-04-14T02:17:53.490Z,2.60
2024-04-14T02:20:28.813Z,3.33
2024-04-14T02:22:58.058Z,3.75
2024-04-14T02:25:25.333Z,5.18
2024-04-14T02:27:53.027Z,5.53
2024-04-14T02:30:26.131Z,4.40
2024-04-14T02:32:52.912Z,6.55
2024-04-14T02:35:23.123Z,4.70
2024-04-14T02:37:49.870Z,5.53
2024-04-14T02:40:16.812Z,3.35
2024-04-14T02:42:43.529Z,3.13
2024-04-14T02:45:10.401Z,5.97
2024-04-14T02:47:39.818Z,4.18
2024-04-14T02:50:07.836Z,5.13
2024-04-14T02:52:34.582Z,7.97
2024-04-14T02:55:01.426Z,6.97
2024-04-14T02:57:28.259Z,3.22
2024-04-14T02:59:55.421Z,5.63
2024-04-14T03:02:22.296Z,6.47
2024-04-14T03:04:51.823Z,7.72
2024-04-14T03:07:18.562Z,5.60
2024-04-14T03:09:45.268Z,2.70
2024-04-14T03:12:12.030Z,4.70
2024-04-14T03:14:38.841Z,6.28
2024-04-14T03:17:05.938Z,4.68
2024-04-14T03:19:32.652Z,7.25
2024-04-14T03:22:02.055Z,6.88
2024-04-14T03:24:28.858Z,4.15
2024-04-14T03:26:55.682Z,2.97
2024-04-14T03:29:22.425Z,4.85
2024-04-14T03:31:49.389Z,6.43
2024-04-14T03:34:16.102Z,5.97
2024-04-14T03:36:42.879Z,4.68
2024-04-14T03:39:12.412Z,5.20
2024-04-14T03:41:39.187Z,6.35
2024-04-14T03:44:05.962Z,5.50
2024-04-14T03:46:32.785Z,4.30
2024-04-14T03:48:59.643Z,3.97
2024-04-14T03:51:26.487Z,3.25
2024-04-14T03:53:53.307Z,8.07
2024-04-14T03:56:22.782Z,6.95
2024-04-14T03:58:49.525Z,3.85
2024-04-14T04:01:16.388Z,4.82
2024-04-14T04:03:43.368Z,4.55
2024-04-14T04:06:10.287Z,6.40
2024-04-14T04:08:37.129Z,4.55
2024-04-14T04:11:05.609Z,6.80
2024-04-14T04:13:35.493Z,10.57
2024-04-14T04:16:03.556Z,5.68
2024-04-14T04:18:31.211Z,4.07
2024-04-14T04:20:59.300Z,6.28
2024-04-14T04:23:26.656Z,6.88
2024-04-14T04:25:54.004Z,5.10
2024-04-14T04:28:20.726Z,5.82
2024-04-14T04:30:50.311Z,6.80
2024-04-14T04:33:17.756Z,6.78
2024-04-14T04:35:52.065Z,3.88
2024-04-14T04:38:18.826Z,6.53
2024-04-14T04:40:45.616Z,5.18
2024-04-14T04:43:12.498Z,4.53
2024-04-14T04:45:39.377Z,3.42
2024-04-14T04:48:09.305Z,4.82
2024-04-14T04:50:36.173Z,7.63
2024-04-14T04:53:02.987Z,10.20
2024-04-14T04:55:29.749Z,10.20
2024-04-14T04:57:56.572Z,6.18
2024-04-14T05:00:23.508Z,8.90
2024-04-14T05:02:50.369Z,10.32
2024-04-14T05:05:23.083Z,10.57
2024-04-14T05:07:49.870Z,9.60
2024-04-14T05:10:16.761Z,8.15
2024-04-14T05:12:43.510Z,7.85
2024-04-14T05:15:10.326Z,7.50
2024-04-14T05:17:37.227Z,6.63
2024-04-14T05:20:04.708Z,5.82
2024-04-14T05:22:34.127Z,6.35
2024-04-14T05:25:00.989Z,7.10
2024-04-14T05:27:27.850Z,6.03
2024-04-14T05:29:54.992Z,6.18
2024-04-14T05:32:21.819Z,11.05
2024-04-14T05:34:51.094Z,9.05
2024-04-14T05:37:17.822Z,8.85
2024-04-14T05:39:47.203Z,8.77
2024-04-14T05:42:14.016Z,12.32
2024-04-14T05:44:45.776Z,13.07
2024-04-14T05:47:12.556Z,11.73
2024-04-14T05:49:39.341Z,13.75
2024-04-14T05:52:06.860Z,7.53
2024-04-14T05:54:34.565Z,11.00
2024-04-14T05:57:04.675Z,14.15
2024-04-14T05:59:31.481Z,9.55
2024-04-14T06:01:58.234Z,10.05
2024-04-14T06:04:25.201Z,10.93
2024-04-14T06:06:52.582Z,11.80
2024-04-14T06:09:19.416Z,12.95
2024-04-14T06:11:46.174Z,8.43
2024-04-14T06:14:15.610Z,11.13
2024-04-14T06:16:42.493Z,8.77
2024-04-14T06:19:09.376Z,10.02
2024-04-14T06:21:36.179Z,7.78
2024-04-14T06:24:02.995Z,12.25
2024-04-14T06:26:30.141Z,11.82
2024-04-14T06:28:56.960Z,14.73
2024-04-14T06:31:26.429Z,13.32
2024-04-14T06:33:53.256Z,12.98
2024-04-14T06:36:20.074Z,14.60
2024-04-14T06:38:46.855Z,10.65
2024-04-14T06:41:14.361Z,16.48
2024-04-14T06:43:41.130Z,10.73
2024-04-14T06:46:07.930Z,15.32
2024-04-14T06:48:37.354Z,21.10
2024-04-14T06:51:04.156Z,10.65
2024-04-14T06:53:30.888Z,13.90
2024-04-14T06:55:57.629Z,10.73
2024-04-14T06:58:24.450Z,12.20
2024-04-14T07:00:51.522Z,13.50
2024-04-14T07:03:18.335Z,19.23
2024-04-14T07:05:47.817Z,18.98
2024-04-14T07:08:14.616Z,15.05
2024-04-14T07:10:41.351Z,15.68
2024-04-14T07:13:08.137Z,10.85
2024-04-14T07:15:34.969Z,18.38
2024-04-14T07:18:01.948Z,11.07
2024-04-14T07:20:30.107Z,11.10
2024-04-14T07:22:59.569Z,14.02
2024-04-14T07:25:26.402Z,17.70
2024-04-14T07:27:53.286Z,12.43
2024-04-14T07:30:22.165Z,17.23
2024-04-14T07:32:49.065Z,14.23
2024-04-14T07:35:15.892Z,16.45
2024-04-14T07:37:42.640Z,14.10
2024-04-14T07:40:12.354Z,16.80
2024-04-14T07:42:39.186Z,11.90
2024-04-14T07:45:06.548Z,18.08
2024-04-14T07:47:33.345Z,11.95
2024-04-14T07:50:00.163Z,15.60
2024-04-14T07:52:27.045Z,14.32
2024-04-14T07:54:54.030Z,10.65
2024-04-14T07:57:23.535Z,15.48
2024-04-14T07:59:50.327Z,15.77
2024-04-14T08:02:17.073Z,11.60
2024-04-14T08:04:44.032Z,9.90
2024-04-14T08:07:10.878Z,15.68
2024-04-14T08:09:37.813Z,12.32
2024-04-14T08:12:07.641Z,15.50
2024-04-14T08:14:38.150Z,13.43
2024-04-14T08:17:05.009Z,12.18
2024-04-14T08:19:31.789Z,13.30
2024-04-14T08:21:58.583Z,10.25
2024-04-14T08:24:25.459Z,10.98
2024-04-14T08:26:52.277Z,9.55
2024-04-14T08:29:19.044Z,11.98
2024-04-14T08:31:48.449Z,8.85
2024-04-14T08:34:15.315Z,8.95
2024-04-14T08:36:42.158Z,10.32
2024-04-14T08:39:09.077Z,8.43
2024-04-14T08:41:40.982Z,12.13
2024-04-14T08:44:09.192Z,12.48
2024-04-14T08:46:36.438Z,7.45
2024-04-14T08:49:06.007Z,10.18
2024-04-14T08:51:32.922Z,7.55
2024-04-14T08:54:00.547Z,6.78
2024-04-14T08:56:30.329Z,9.05
2024-04-14T08:59:02.377Z,8.48
2024-04-14T09:01:29.431Z,7.75
2024-04-14T09:03:56.368Z,10.20
2024-04-14T09:06:31.247Z,6.85
2024-04-14T09:08:59.145Z,7.38
2024-04-14T09:11:25.910Z,7.20
2024-04-14T09:13:52.812Z,13.10
2024-04-14T09:16:19.626Z,8.10
2024-04-14T09:18:46.458Z,6.70
2024-04-14T09:21:13.341Z,5.88
2024-04-14T09:23:42.809Z,7.30
2024-04-14T09:26:09.659Z,7.30
2024-04-14T09:28:36.523Z,7.80
2024-04-14T09:31:03.448Z,7.13
2024-04-14T09:33:33.101Z,5.03
2024-04-14T09:36:00.146Z,6.32
2024-04-14T09:38:27.782Z,7.45
2024-04-14T09:40:57.964Z,4.10
2024-04-14T09:43:25.927Z,7.10
2024-04-14T09:45:56.000Z,5.97
2024-04-14T09:48:26.129Z,5.88
2024-04-14T09:50:55.276Z,4.80
2024-04-14T09:53:24.116Z,4.55
2024-04-14T09:55:50.954Z,6.10
2024-04-14T09:58:20.483Z,5.05
2024-04-14T10:00:48.498Z,4.82
2024-04-14T10:03:16.778Z,5.78
2024-04-14T10:05:45.023Z,9.73
2024-04-14T10:08:11.885Z,4.95
2024-04-14T10:10:38.869Z,4.63
2024-04-14T10:13:08.043Z,3.70
2024-04-14T10:15:38.046Z,3.88
2024-04-14T10:18:11.473Z,8.13
2024-04-14T10:20:46.593Z,7.05
2024-04-14T10:23:19.237Z,5.10
2024-04-14T10:25:46.843Z,6.53
2024-04-14T10:28:16.348Z,6.95
2024-04-14T10:30:46.278Z,5.70
2024-04-14T10:33:20.679Z,5.32
2024-04-14T10:35:47.661Z,4.20
2024-04-14T10:38:21.134Z,4.90
2024-04-14T10:40:48.033Z,6.25
2024-04-14T10:43:15.895Z,5.65
2024-04-14T10:45:45.395Z,5.55
2024-04-14T10:48:12.249Z,4.88
2024-04-14T10:50:38.995Z,7.43
2024-04-14T10:53:05.789Z,3.45
2024-04-14T10:55:32.743Z,5.72
2024-04-14T10:57:59.599Z,5.65
2024-04-14T11:00:26.647Z,4.55
2024-04-14T11:02:57.183Z,4.55
2024-04-14T11:05:24.916Z,5.05
2024-04-14T11:07:52.809Z,2.63
2024-04-14T11:10:21.797Z,6.88
2024-04-14T11:12:49.003Z,7.03
2024-04-14T11:15:15.969Z,5.32
2024-04-14T11:17:43.015Z,7.85
2024-04-14T11:20:16.609Z,5.10
2024-04-14T11:22:44.049Z,6.10
2024-04-14T11:25:11.020Z,4.10
2024-04-14T11:27:38.293Z,4.18
2024-04-14T11:30:05.936Z,4.43
2024-04-14T11:32:36.934Z,6.30
2024-04-14T11:35:05.252Z,3.45
2024-04-14T11:37:37.596Z,6.43
2024-04-14T11:40:09.292Z,5.78
2024-04-14T11:42:38.299Z,2.10
2024-04-14T11:45:06.452Z,3.40
2024-04-14T11:47:33.387Z,7.00
2024-04-14T11:50:00.261Z,3.13
2024-04-14T11:52:27.103Z,4.90
2024-04-14T11:54:56.598Z,4.00
2024-04-14T11:57:23.957Z,5.90
2024-04-14T11:59:50.864Z,5.03
2024-04-14T12:02:17.916Z,6.10
2024-04-14T12:04:44.879Z,6.63
2024-04-14T12:07:11.739Z,3.33
2024-04-14T12:09:38.576Z,4.32
2024-04-14T12:12:11.216Z,7.80
2024-04-14T12:14:38.753Z,7.80
2024-04-14T12:17:05.784Z,2.75
2024-04-14T12:19:32.594Z,6.95
2024-04-14T12:21:59.412Z,5.10
2024-04-14T12:24:26.293Z,3.85
2024-04-14T12:26:53.687Z,6.97
2024-04-14T12:29:23.213Z,4.57
2024-04-14T12:31:50.083Z,4.90
2024-04-14T12:34:17.225Z,10.15
2024-04-14T12:36:44.072Z,5.22
2024-04-14T12:39:16.953Z,5.07
2024-04-14T12:41:47.650Z,4.32
2024-04-14T12:44:14.385Z,5.80
2024-04-14T12:46:43.791Z,6.13
2024-04-14T12:49:10.590Z,4.22
2024-04-14T12:51:37.444Z,8.45
2024-04-14T12:54:06.201Z,8.05
2024-04-14T12:56:34.235Z,5.72
2024-04-14T12:59:00.985Z,6.82
2024-04-14T13:01:28.396Z,5.43
2024-04-14T13:03:57.959Z,5.72
2024-04-14T13:06:24.762Z,7.95
2024-04-14T13:08:51.771Z,6.32
2024-04-14T13:11:18.875Z,7.95
2024-04-14T13:13:45.814Z,5.15
2024-04-14T13:16:12.808Z,6.13
2024-04-14T13:18:39.707Z,3.85
2024-04-14T13:21:09.238Z,4.20
2024-04-14T13:23:39.485Z,5.57
2024-04-14T13:26:07.723Z,8.68
2024-04-14T13:28:34.461Z,6.43
2024-04-14T13:31:01.236Z,5.55
2024-04-14T13:33:28.112Z,9.02
2024-04-14T13:35:54.930Z,7.35
2024-04-14T13:38:24.256Z,5.53
2024-04-14T13:40:51.012Z,8.55
2024-04-14T13:43:18.375Z,4.03
2024-04-14T13:45:45.507Z,7.20
2024-04-14T13:48:12.383Z,4.75
2024-04-14T13:50:39.271Z,4.93
2024-04-14T13:53:06.090Z,6.03
2024-04-14T13:55:35.514Z,11.00
2024-04-14T13:58:02.499Z,5.22
2024-04-14T14:00:29.319Z,7.03
2024-04-14T14:02:56.474Z,8.25
2024-04-14T14:05:23.599Z,4.18
2024-04-14T14:07:50.377Z,5.78
2024-04-14T14:10:20.492Z,7.05
2024-04-14T14:12:50.310Z,6.13
2024-04-14T14:15:17.250Z,5.35
2024-04-14T14:17:44.147Z,4.15
2024-04-14T14:20:11.059Z,3.95
2024-04-14T14:22:37.847Z,7.28
2024-04-14T14:25:06.089Z,6.72
2024-04-14T14:27:34.111Z,5.72
2024-04-14T14:30:07.302Z,13.05
2024-04-14T14:32:34.714Z,4.10
2024-04-14T14:35:01.467Z,6.55
2024-04-14T14:37:28.264Z,5.38
2024-04-14T14:39:55.125Z,4.40
2024-04-14T14:42:21.883Z,4.72
2024-04-14T14:44:48.829Z,5.88
2024-04-14T14:47:18.911Z,6.32
2024-04-14T14:49:45.942Z,4.40
2024-04-14T14:52:12.815Z,8.52
2024-04-14T14:54:39.739Z,6.32
2024-04-14T14:57:06.490Z,8.02
2024-04-14T14:59:33.278Z,7.80
2024-04-14T15:02:00.077Z,6.10
2024-04-14T15:04:32.834Z,5.10
2024-04-14T15:06:59.705Z,6.68
2024-04-14T15:09:26.489Z,6.75
2024-04-14T15:11:53.329Z,7.32
2024-04-14T15:14:20.169Z,8.35
2024-04-14T15:16:47.230Z,5.95
2024-04-14T15:19:14.491Z,6.00
2024-04-14T15:21:43.943Z,9.77
2024-04-14T15:24:10.754Z,8.65
2024-04-14T15:26:37.638Z,5.55
2024-04-14T15:29:04.431Z,5.40
2024-04-14T15:31:31.522Z,4.32
2024-04-14T15:33:58.489Z,4.45
2024-04-14T15:36:25.278Z,5.60
2024-04-14T15:38:54.575Z,6.22
2024-04-14T15:41:21.880Z,6.05
2024-04-14T15:43:49.067Z,5.20
2024-04-14T15:46:15.915Z,4.65
2024-04-14T15:48:42.779Z,6.93
2024-04-14T15:51:18.072Z,10.57
2024-04-14T15:53:47.544Z,6.68
2024-04-14T15:56:17.125Z,10.60
2024-04-14T15:58:43.935Z,9.60
2024-04-14T16:01:10.873Z,6.05
2024-04-14T16:03:38.015Z,8.25
2024-04-14T16:06:05.217Z,11.63
2024-04-14T16:08:32.057Z,9.38
2024-04-14T16:11:03.060Z,6.38
2024-04-14T16:13:32.890Z,5.90
2024-04-14T16:16:07.995Z,7.70
2024-04-14T16:18:34.998Z,5.18
2024-04-14T16:21:01.957Z,8.35
2024-04-14T16:23:31.354Z,9.38
2024-04-14T16:25:58.267Z,6.50
2024-04-14T16:28:25.111Z,5.18
2024-04-14T16:30:54.592Z,9.73
2024-04-14T16:33:21.522Z,5.90
2024-04-14T16:35:48.291Z,7.53
2024-04-14T16:38:15.160Z,12.88
2024-04-14T16:40:41.914Z,9.02
2024-04-14T16:43:08.746Z,10.50
2024-04-14T16:45:35.598Z,9.35
2024-04-14T16:48:05.945Z,5.05
2024-04-14T16:50:32.906Z,6.18
2024-04-14T16:52:59.696Z,8.23
2024-04-14T16:55:26.703Z,8.55
2024-04-14T16:57:53.643Z,8.48
2024-04-14T17:00:20.734Z,5.60
2024-04-14T17:02:47.571Z,6.13
2024-04-14T17:05:17.259Z,7.05
2024-04-14T17:07:44.034Z,7.88
2024-04-14T17:10:10.979Z,6.53
2024-04-14T17:12:37.954Z,8.55
2024-04-14T17:15:06.493Z,15.57
2024-04-14T17:17:33.312Z,9.13
2024-04-14T17:20:00.160Z,8.02
2024-04-14T17:22:30.098Z,13.38
2024-04-14T17:24:57.362Z,10.70
2024-04-14T17:27:24.263Z,8.95
2024-04-14T17:29:51.143Z,7.50
2024-04-14T17:32:19.155Z,11.20
2024-04-14T17:34:46.190Z,7.05
2024-04-14T17:37:13.240Z,6.45
2024-04-14T17:39:42.769Z,8.88
2024-04-14T17:42:09.640Z,11.88
2024-04-14T17:44:37.048Z,6.85
2024-04-14T17:47:04.435Z,6.10
2024-04-14T17:49:31.393Z,7.75
2024-04-14T17:51:58.497Z,12.73
2024-04-14T17:54:25.383Z,11.60
2024-04-14T17:56:54.866Z,6.22
2024-04-14T17:59:22.055Z,9.07
2024-04-14T18:01:49.140Z,5.05
2024-04-14T18:04:18.059Z,9.48
2024-04-14T18:06:45.014Z,10.55
2024-04-14T18:09:11.916Z,4.85
2024-04-14T18:11:39.027Z,7.15
2024-04-14T18:14:09.804Z,7.90
2024-04-14T18:16:37.719Z,7.38
2024-04-14T18:19:04.978Z,8.93
2024-04-14T18:21:31.994Z,10.75
2024-04-14T18:24:01.555Z,7.68
2024-04-14T18:26:28.879Z,12.45
2024-04-14T18:28:55.838Z,7.35
2024-04-14T18:31:25.471Z,10.85
2024-04-14T18:33:52.864Z,12.45
2024-04-14T18:36:19.904Z,8.82
2024-04-14T18:38:46.966Z,12.43
2024-04-14T18:41:13.955Z,12.02
2024-04-14T18:43:40.856Z,10.55
2024-04-14T18:46:07.902Z,9.90
2024-04-14T18:48:37.608Z,8.05
2024-04-14T18:51:05.044Z,9.30
2024-04-14T18:53:32.011Z,11.57
2024-04-14T18:56:00.262Z,7.10
2024-04-14T18:58:31.322Z,9.48
2024-04-14T19:00:59.681Z,11.68
2024-04-14T19:03:26.623Z,5.70
2024-04-14T19:06:01.261Z,10.43
2024-04-14T19:08:28.310Z,6.20
2024-04-14T19:10:55.152Z,5.93
2024-04-14T19:13:22.187Z,6.47
2024-04-14T19:15:57.595Z,9.02
2024-04-14T19:20:51.094Z,6.30
2024-04-14T19:23:20.599Z,8.65
2024-04-14T19:25:47.753Z,8.27
2024-04-14T19:28:16.881Z,7.60
2024-04-14T19:30:44.265Z,10.93
2024-04-14T19:33:11.454Z,7.28
2024-04-14T19:35:46.727Z,8.15
2024-04-14T19:38:23.934Z,8.93
2024-04-14T19:40:50.820Z,8.18
2024-04-14T19:43:17.729Z,12.15
2024-04-14T19:45:44.606Z,7.50
2024-04-14T19:48:11.522Z,6.47
2024-04-14T19:50:38.462Z,10.65
2024-04-14T19:53:05.347Z,7.13
2024-04-14T19:55:35.387Z,10.10
2024-04-14T19:58:02.314Z,10.25
2024-04-14T20:00:29.277Z,8.82
2024-04-14T20:02:56.271Z,7.35
2024-04-14T20:05:23.324Z,10.10
2024-04-14T20:07:50.192Z,8.65
2024-04-14T20:10:17.106Z,10.52
2024-04-14T20:12:46.953Z,4.72
2024-04-14T20:15:14.050Z,8.02
2024-04-14T20:17:40.914Z,7.15
2024-04-14T20:20:08.772Z,7.93
2024-04-14T20:22:35.600Z,12.63
2024-04-14T20:25:03.140Z,6.22
2024-04-14T20:27:32.307Z,6.90
2024-04-14T20:30:02.347Z,5.22
2024-04-14T20:32:29.218Z,6.65
2024-04-14T20:34:56.095Z,5.60
2024-04-14T20:37:22.921Z,5.15
2024-04-14T20:39:49.726Z,3.83
2024-04-14T20:42:18.096Z,5.60
2024-04-14T20:44:46.071Z,5.50
2024-04-14T20:47:17.366Z,7.60
2024-04-14T20:49:45.587Z,6.63
2024-04-14T20:52:12.443Z,6.60
2024-04-14T20:54:39.428Z,8.27
2024-04-14T20:57:06.301Z,7.68
2024-04-14T20:59:33.167Z,11.02
2024-04-14T21:02:00.052Z,5.10
2024-04-14T21:04:35.840Z,10.80
2024-04-14T21:07:10.200Z,6.57
2024-04-14T21:09:37.129Z,8.25
2024-04-14T21:12:04.582Z,6.63
2024-04-14T21:14:31.475Z,6.90
2024-04-14T21:16:58.266Z,6.25
2024-04-14T21:19:25.099Z,5.80
2024-04-14T21:21:54.595Z,7.38
2024-04-14T21:24:21.426Z,5.85
2024-04-14T21:26:48.358Z,4.93
2024-04-14T21:29:15.178Z,5.75
2024-04-14T21:31:42.216Z,8.40
2024-04-14T21:34:09.086Z,6.97
2024-04-14T21:36:36.089Z,6.05
2024-04-14T21:39:05.546Z,6.82
2024-04-14T21:41:32.331Z,6.03
2024-04-14T21:43:59.145Z,3.88
2024-04-14T21:46:25.944Z,5.05
2024-04-14T21:48:52.801Z,8.02
2024-04-14T21:51:19.588Z,7.18
2024-04-14T21:53:46.423Z,9.05
2024-04-14T21:56:15.779Z,9.50
2024-04-14T21:58:42.560Z,10.23
2024-04-14T22:01:13.376Z,10.52
2024-04-14T22:03:40.347Z,7.15
2024-04-14T22:06:07.205Z,8.07
2024-04-14T22:08:34.164Z,6.47
2024-04-14T22:11:01.110Z,10.02
2024-04-14T22:13:30.654Z,7.20
2024-04-14T22:15:57.791Z,5.25
2024-04-14T22:18:24.654Z,5.45
2024-04-14T22:20:51.503Z,10.75
2024-04-14T22:23:18.334Z,5.60
2024-04-14T22:25:45.206Z,9.23
2024-04-14T22:28:12.114Z,4.88
2024-04-14T22:30:41.722Z,7.75
2024-04-14T22:33:08.933Z,8.35
2024-04-14T22:35:35.755Z,6.68
2024-04-14T22:38:03.042Z,9.15
2024-04-14T22:40:30.911Z,8.85
2024-04-14T22:42:57.956Z,9.27
2024-04-14T22:45:25.022Z,7.05
2024-04-14T22:47:56.268Z,8.57
2024-04-14T22:50:23.094Z,6.32
2024-04-14T22:52:49.953Z,10.57
2024-04-14T22:55:16.842Z,8.68
2024-04-14T22:57:43.775Z,8.55
2024-04-14T23:00:11.243Z,7.95
2024-04-14T23:02:38.273Z,8.52
2024-04-14T23:05:08.083Z,8.15
2024-04-14T23:07:34.828Z,8.43
2024-04-14T23:10:01.713Z,9.30
2024-04-14T23:12:28.634Z,8.10
2024-04-14T23:14:55.332Z,8.57
2024-04-14T23:17:22.297Z,9.18
2024-04-14T23:19:49.066Z,6.10
2024-04-14T23:22:18.553Z,5.43
2024-04-14T23:24:45.806Z,8.57
2024-04-14T23:27:12.556Z,8.57
2024-04-14T23:29:39.324Z,8.20
2024-04-14T23:32:07.087Z,5.85
2024-04-14T23:34:34.023Z,8.73
2024-04-14T23:37:01.913Z,6.97
2024-04-14T23:39:31.353Z,5.05
2024-04-14T23:41:58.321Z,4.60
2024-04-14T23:44:25.150Z,5.85
2024-04-14T23:46:51.899Z,5.35
2024-04-14T23:49:18.748Z,5.20
2024-04-14T23:51:45.596Z,8.23
2024-04-14T23:54:12.450Z,7.72
2024-04-14T23:56:41.836Z,9.50
2024-04-14T23:59:08.591Z,10.43
